sensor_id;sensor_type;location;lat;lon;timestamp;temperature;humidity
1359;DHT22;673;48.098;14.422;2023-02-01T00:01:14;2.70;99.90
1359;DHT22;673;48.098;14.422;2023-02-01T00:03:42;2.60;99.90
1359;DHT22;673;48.098;14.422;2023-02-01T00:06:11;2.50;99.90
1359;DHT22;673;48.098;14.422;2023-02-01T00:08:41;2.60;99.90
1359;DHT22;673;48.098;14.422;2023-02-01T00:11:09;2.60;99.90
1359;DHT22;673;48.098;14.422;2023-02-01T00:13:41;2.50;99.90
1359;DHT22;673;48.098;14.422;2023-02-01T00:16:11;2.50;99.90
1359;DHT22;673;48.098;14.422;2023-02-01T00:18:45;2.50;99.90
1359;DHT22;673;48.098;14.422;2023-02-01T00:21:13;2.50;99.90
1359;DHT22;673;48.098;14.422;2023-02-01T00:23:41;2.60;99.90
1359;DHT22;673;48.098;14.422;2023-02-01T00:26:13;2.50;99.90
1359;DHT22;673;48.098;14.422;2023-02-01T00:28:44;2.60;99.90
1359;DHT22;673;48.098;14.422;2023-02-01T00:31:12;2.70;99.90
1359;DHT22;673;48.098;14.422;2023-02-01T00:33:40;2.60;99.90
1359;DHT22;673;48.098;14.422;2023-02-01T00:36:08;2.60;99.90
1359;DHT22;673;48.098;14.422;2023-02-01T00:38:37;2.70;99.90
1359;DHT22;673;48.098;14.422;2023-02-01T00:41:06;2.70;99.90
1359;DHT22;673;48.098;14.422;2023-02-01T00:43:33;2.70;99.90
1359;DHT22;673;48.098;14.422;2023-02-01T00:46:04;2.70;99.90
1359;DHT22;673;48.098;14.422;2023-02-01T00:48:35;2.80;99.90
1359;DHT22;673;48.098;14.422;2023-02-01T00:51:03;2.70;99.90
1359;DHT22;673;48.098;14.422;2023-02-01T00:53:33;2.70;99.90
1359;DHT22;673;48.098;14.422;2023-02-01T00:56:00;2.70;99.90
1359;DHT22;673;48.098;14.422;2023-02-01T00:58:29;2.70;99.90
1359;DHT22;673;48.098;14.422;2023-02-01T01:01:04;2.60;99.90
1359;DHT22;673;48.098;14.422;2023-02-01T01:03:37;2.60;99.90
1359;DHT22;673;48.098;14.422;2023-02-01T01:06:06;2.60;99.90
1359;DHT22;673;48.098;14.422;2023-02-01T01:08:34;2.60;99.90
1359;DHT22;673;48.098;14.422;2023-02-01T01:11:05;2.60;99.90
1359;DHT22;673;48.098;14.422;2023-02-01T01:13:32;2.60;99.90
1359;DHT22;673;48.098;14.422;2023-02-01T01:16:00;2.60;99.90
1359;DHT22;673;48.098;14.422;2023-02-01T01:18:31;2.60;99.90
1359;DHT22;673;48.098;14.422;2023-02-01T01:21:04;2.60;99.90
1359;DHT22;673;48.098;14.422;2023-02-01T01:23:31;2.70;99.90
1359;DHT22;673;48.098;14.422;2023-02-01T01:26:04;2.80;99.90
1359;DHT22;673;48.098;14.422;2023-02-01T01:28:31;2.80;99.90
1359;DHT22;673;48.098;14.422;2023-02-01T01:31:00;2.80;99.90
1359;DHT22;673;48.098;14.422;2023-02-01T01:33:27;2.80;99.90
1359;DHT22;673;48.098;14.422;2023-02-01T01:35:59;2.80;99.90
1359;DHT22;673;48.098;14.422;2023-02-01T01:38:27;2.80;99.90
1359;DHT22;673;48.098;14.422;2023-02-01T01:40:54;2.80;99.90
1359;DHT22;673;48.098;14.422;2023-02-01T01:43:21;2.90;99.90
1359;DHT22;673;48.098;14.422;2023-02-01T01:45:48;2.90;99.90
1359;DHT22;673;48.098;14.422;2023-02-01T01:48:18;2.90;99.90
1359;DHT22;673;48.098;14.422;2023-02-01T01:50:54;2.90;99.90
1359;DHT22;673;48.098;14.422;2023-02-01T01:53:25;2.90;99.90
1359;DHT22;673;48.098;14.422;2023-02-01T01:55:56;2.90;99.90
1359;DHT22;673;48.098;14.422;2023-02-01T01:58:27;2.90;99.90
1359;DHT22;673;48.098;14.422;2023-02-01T02:00:55;2.90;99.90
1359;DHT22;673;48.098;14.422;2023-02-01T02:03:25;2.90;99.90
1359;DHT22;673;48.098;14.422;2023-02-01T02:05:54;2.80;99.90
1359;DHT22;673;48.098;14.422;2023-02-01T02:08:24;2.90;99.90
1359;DHT22;673;48.098;14.422;2023-02-01T02:10:52;2.90;99.90
1359;DHT22;673;48.098;14.422;2023-02-01T02:13:32;2.90;99.90
1359;DHT22;673;48.098;14.422;2023-02-01T02:16:12;2.90;99.90
1359;DHT22;673;48.098;14.422;2023-02-01T02:18:45;3.00;99.90
1359;DHT22;673;48.098;14.422;2023-02-01T02:21:27;3.00;99.90
1359;DHT22;673;48.098;14.422;2023-02-01T02:24:27;3.00;99.90
1359;DHT22;673;48.098;14.422;2023-02-01T02:27:12;3.10;99.90
1359;DHT22;673;48.098;14.422;2023-02-01T02:33:43;3.10;99.90
1359;DHT22;673;48.098;14.422;2023-02-01T02:36:17;3.10;99.90
1359;DHT22;673;48.098;14.422;2023-02-01T02:38:52;3.20;99.90
1359;DHT22;673;48.098;14.422;2023-02-01T02:41:26;3.10;99.90
1359;DHT22;673;48.098;14.422;2023-02-01T02:44:26;3.20;99.90
1359;DHT22;673;48.098;14.422;2023-02-01T02:47:18;3.20;99.90
1359;DHT22;673;48.098;14.422;2023-02-01T02:50:01;3.20;99.90
1359;DHT22;673;48.098;14.422;2023-02-01T02:52:53;3.20;99.90
1359;DHT22;673;48.098;14.422;2023-02-01T02:55:41;3.20;99.90
1359;DHT22;673;48.098;14.422;2023-02-01T02:58:13;3.30;99.90
1359;DHT22;673;48.098;14.422;2023-02-01T03:01:00;3.30;99.90
1359;DHT22;673;48.098;14.422;2023-02-01T03:03:45;3.30;99.90
1359;DHT22;673;48.098;14.422;2023-02-01T03:06:36;3.30;99.90
1359;DHT22;673;48.098;14.422;2023-02-01T03:09:09;3.20;99.90
1359;DHT22;673;48.098;14.422;2023-02-01T03:11:37;3.30;99.90
1359;DHT22;673;48.098;14.422;2023-02-01T03:14:25;3.30;99.90
1359;DHT22;673;48.098;14.422;2023-02-01T03:16:58;3.30;99.90
1359;DHT22;673;48.098;14.422;2023-02-01T03:19:33;3.30;99.90
1359;DHT22;673;48.098;14.422;2023-02-01T03:22:07;3.30;99.90
1359;DHT22;673;48.098;14.422;2023-02-01T03:24:39;3.30;99.90
1359;DHT22;673;48.098;14.422;2023-02-01T03:27:11;3.30;99.90
1359;DHT22;673;48.098;14.422;2023-02-01T03:29:48;3.40;99.90
1359;DHT22;673;48.098;14.422;2023-02-01T03:32:16;3.40;99.90
1359;DHT22;673;48.098;14.422;2023-02-01T03:34:43;3.40;99.90
1359;DHT22;673;48.098;14.422;2023-02-01T03:37:13;3.40;99.90
1359;DHT22;673;48.098;14.422;2023-02-01T03:39:47;3.50;99.90
1359;DHT22;673;48.098;14.422;2023-02-01T03:42:17;3.60;99.90
1359;DHT22;673;48.098;14.422;2023-02-01T03:44:49;3.60;99.90
1359;DHT22;673;48.098;14.422;2023-02-01T03:47:20;3.60;99.90
1359;DHT22;673;48.098;14.422;2023-02-01T03:49:52;3.60;99.90
1359;DHT22;673;48.098;14.422;2023-02-01T03:52:28;3.60;99.90
1359;DHT22;673;48.098;14.422;2023-02-01T03:54:58;3.60;99.90
1359;DHT22;673;48.098;14.422;2023-02-01T03:57:28;3.60;99.90
1359;DHT22;673;48.098;14.422;2023-02-01T04:00:07;3.70;99.90
1359;DHT22;673;48.098;14.422;2023-02-01T04:02:37;3.60;99.90
1359;DHT22;673;48.098;14.422;2023-02-01T04:05:07;3.70;99.90
1359;DHT22;673;48.098;14.422;2023-02-01T04:07:43;3.60;99.90
1359;DHT22;673;48.098;14.422;2023-02-01T04:10:11;3.60;99.90
1359;DHT22;673;48.098;14.422;2023-02-01T04:12:39;3.60;99.90
1359;DHT22;673;48.098;14.422;2023-02-01T04:15:07;3.70;99.90
1359;DHT22;673;48.098;14.422;2023-02-01T04:17:34;3.70;99.90
1359;DHT22;673;48.098;14.422;2023-02-01T04:20:04;3.60;99.90
1359;DHT22;673;48.098;14.422;2023-02-01T04:22:32;3.60;99.90
1359;DHT22;673;48.098;14.422;2023-02-01T04:25:03;3.60;99.90
1359;DHT22;673;48.098;14.422;2023-02-01T04:27:35;3.60;99.90
1359;DHT22;673;48.098;14.422;2023-02-01T04:30:02;3.60;99.90
1359;DHT22;673;48.098;14.422;2023-02-01T04:32:29;3.60;99.90
1359;DHT22;673;48.098;14.422;2023-02-01T04:34:56;3.60;99.90
1359;DHT22;673;48.098;14.422;2023-02-01T04:37:31;3.50;99.90
1359;DHT22;673;48.098;14.422;2023-02-01T04:39:58;3.60;99.90
1359;DHT22;673;48.098;14.422;2023-02-01T04:42:28;3.60;99.90
1359;DHT22;673;48.098;14.422;2023-02-01T04:44:55;3.60;99.90
1359;DHT22;673;48.098;14.422;2023-02-01T04:47:22;3.50;99.90
1359;DHT22;673;48.098;14.422;2023-02-01T04:49:49;3.60;99.90
1359;DHT22;673;48.098;14.422;2023-02-01T04:52:16;3.60;99.90
1359;DHT22;673;48.098;14.422;2023-02-01T04:54:43;3.60;99.90
1359;DHT22;673;48.098;14.422;2023-02-01T04:57:11;3.60;99.90
1359;DHT22;673;48.098;14.422;2023-02-01T04:59:44;3.60;99.90
1359;DHT22;673;48.098;14.422;2023-02-01T05:02:11;3.70;99.90
1359;DHT22;673;48.098;14.422;2023-02-01T05:04:38;3.70;99.90
1359;DHT22;673;48.098;14.422;2023-02-01T05:07:05;3.70;99.90
1359;DHT22;673;48.098;14.422;2023-02-01T05:09:31;3.70;99.90
1359;DHT22;673;48.098;14.422;2023-02-01T05:11:59;3.70;99.90
1359;DHT22;673;48.098;14.422;2023-02-01T05:14:44;3.70;99.90
1359;DHT22;673;48.098;14.422;2023-02-01T05:17:13;3.70;99.90
1359;DHT22;673;48.098;14.422;2023-02-01T05:19:40;3.70;99.90
1359;DHT22;673;48.098;14.422;2023-02-01T05:22:09;3.70;99.90
1359;DHT22;673;48.098;14.422;2023-02-01T05:24:36;3.70;99.90
1359;DHT22;673;48.098;14.422;2023-02-01T05:27:05;3.70;99.90
1359;DHT22;673;48.098;14.422;2023-02-01T05:29:39;3.70;99.90
1359;DHT22;673;48.098;14.422;2023-02-01T05:32:11;3.60;99.90
1359;DHT22;673;48.098;14.422;2023-02-01T05:34:38;3.60;99.90
1359;DHT22;673;48.098;14.422;2023-02-01T05:37:05;3.60;99.90
1359;DHT22;673;48.098;14.422;2023-02-01T05:39:32;3.70;99.90
1359;DHT22;673;48.098;14.422;2023-02-01T05:41:59;3.70;99.90
1359;DHT22;673;48.098;14.422;2023-02-01T05:44:26;3.70;99.90
1359;DHT22;673;48.098;14.422;2023-02-01T05:47:00;3.80;99.90
1359;DHT22;673;48.098;14.422;2023-02-01T05:49:28;3.80;99.90
1359;DHT22;673;48.098;14.422;2023-02-01T05:51:55;3.80;99.90
1359;DHT22;673;48.098;14.422;2023-02-01T05:54:22;3.80;99.90
1359;DHT22;673;48.098;14.422;2023-02-01T05:56:53;3.80;99.90
1359;DHT22;673;48.098;14.422;2023-02-01T05:59:20;3.80;99.90
1359;DHT22;673;48.098;14.422;2023-02-01T06:01:47;3.80;99.90
1359;DHT22;673;48.098;14.422;2023-02-01T06:04:13;3.70;99.90
1359;DHT22;673;48.098;14.422;2023-02-01T06:06:42;3.80;99.90
1359;DHT22;673;48.098;14.422;2023-02-01T06:09:09;3.80;99.90
1359;DHT22;673;48.098;14.422;2023-02-01T06:11:36;3.70;99.90
1359;DHT22;673;48.098;14.422;2023-02-01T06:14:03;3.70;99.90
1359;DHT22;673;48.098;14.422;2023-02-01T06:16:29;3.70;99.90
1359;DHT22;673;48.098;14.422;2023-02-01T06:18:57;3.60;99.90
1359;DHT22;673;48.098;14.422;2023-02-01T06:21:27;3.60;99.90
1359;DHT22;673;48.098;14.422;2023-02-01T06:23:56;3.60;99.90
1359;DHT22;673;48.098;14.422;2023-02-01T06:26:25;3.70;99.90
1359;DHT22;673;48.098;14.422;2023-02-01T06:28:54;3.60;99.90
1359;DHT22;673;48.098;14.422;2023-02-01T06:31:21;3.60;99.90
1359;DHT22;673;48.098;14.422;2023-02-01T06:33:51;3.50;99.90
1359;DHT22;673;48.098;14.422;2023-02-01T06:36:19;3.50;99.90
1359;DHT22;673;48.098;14.422;2023-02-01T06:38:51;3.50;99.90
1359;DHT22;673;48.098;14.422;2023-02-01T06:41:19;3.50;99.90
1359;DHT22;673;48.098;14.422;2023-02-01T06:43:47;3.50;99.90
1359;DHT22;673;48.098;14.422;2023-02-01T06:46:14;3.60;99.90
1359;DHT22;673;48.098;14.422;2023-02-01T06:48:41;3.60;99.90
1359;DHT22;673;48.098;14.422;2023-02-01T06:51:19;3.70;99.90
1359;DHT22;673;48.098;14.422;2023-02-01T06:53:46;3.70;99.90
1359;DHT22;673;48.098;14.422;2023-02-01T06:56:13;3.70;99.90
1359;DHT22;673;48.098;14.422;2023-02-01T06:58:41;3.70;99.90
1359;DHT22;673;48.098;14.422;2023-02-01T07:01:09;3.70;99.90
1359;DHT22;673;48.098;14.422;2023-02-01T07:03:36;3.80;99.90
1359;DHT22;673;48.098;14.422;2023-02-01T07:06:04;3.80;99.90
1359;DHT22;673;48.098;14.422;2023-02-01T07:08:33;3.80;99.90
1359;DHT22;673;48.098;14.422;2023-02-01T07:11:02;3.80;99.90
1359;DHT22;673;48.098;14.422;2023-02-01T07:13:29;3.80;99.90
1359;DHT22;673;48.098;14.422;2023-02-01T07:15:59;3.70;99.90
1359;DHT22;673;48.098;14.422;2023-02-01T07:18:27;3.80;99.90
1359;DHT22;673;48.098;14.422;2023-02-01T07:20:54;3.80;99.90
1359;DHT22;673;48.098;14.422;2023-02-01T07:23:21;3.80;99.90
1359;DHT22;673;48.098;14.422;2023-02-01T07:25:53;3.80;99.90
1359;DHT22;673;48.098;14.422;2023-02-01T07:28:20;3.80;99.90
1359;DHT22;673;48.098;14.422;2023-02-01T07:30:47;3.80;99.90
1359;DHT22;673;48.098;14.422;2023-02-01T07:33:18;3.90;99.90
1359;DHT22;673;48.098;14.422;2023-02-01T07:35:46;3.80;99.90
1359;DHT22;673;48.098;14.422;2023-02-01T07:38:14;3.80;99.90
1359;DHT22;673;48.098;14.422;2023-02-01T07:40:41;3.80;99.90
1359;DHT22;673;48.098;14.422;2023-02-01T07:43:09;3.80;99.90
1359;DHT22;673;48.098;14.422;2023-02-01T07:45:36;3.90;99.90
1359;DHT22;673;48.098;14.422;2023-02-01T07:48:06;3.90;99.90
1359;DHT22;673;48.098;14.422;2023-02-01T07:50:37;4.00;99.90
1359;DHT22;673;48.098;14.422;2023-02-01T07:53:04;4.10;99.90
1359;DHT22;673;48.098;14.422;2023-02-01T07:55:34;4.10;99.90
1359;DHT22;673;48.098;14.422;2023-02-01T07:58:03;4.10;99.90
1359;DHT22;673;48.098;14.422;2023-02-01T08:00:30;4.20;99.90
1359;DHT22;673;48.098;14.422;2023-02-01T08:03:14;4.20;99.90
1359;DHT22;673;48.098;14.422;2023-02-01T08:05:43;4.20;99.90
1359;DHT22;673;48.098;14.422;2023-02-01T08:08:09;4.30;99.90
1359;DHT22;673;48.098;14.422;2023-02-01T08:10:36;4.30;99.90
1359;DHT22;673;48.098;14.422;2023-02-01T08:13:03;4.30;99.90
1359;DHT22;673;48.098;14.422;2023-02-01T08:15:33;4.30;99.90
1359;DHT22;673;48.098;14.422;2023-02-01T08:18:00;4.30;99.90
1359;DHT22;673;48.098;14.422;2023-02-01T08:20:28;4.40;99.90
1359;DHT22;673;48.098;14.422;2023-02-01T08:22:56;4.40;99.90
1359;DHT22;673;48.098;14.422;2023-02-01T08:25:24;4.40;99.90
1359;DHT22;673;48.098;14.422;2023-02-01T08:27:51;4.50;99.90
1359;DHT22;673;48.098;14.422;2023-02-01T08:30:19;4.50;99.90
1359;DHT22;673;48.098;14.422;2023-02-01T08:32:46;4.60;99.90
1359;DHT22;673;48.098;14.422;2023-02-01T08:35:15;4.60;99.90
1359;DHT22;673;48.098;14.422;2023-02-01T08:37:44;4.70;99.90
1359;DHT22;673;48.098;14.422;2023-02-01T08:40:13;4.70;99.90
1359;DHT22;673;48.098;14.422;2023-02-01T08:42:40;4.70;99.90
1359;DHT22;673;48.098;14.422;2023-02-01T08:45:22;4.70;99.90
1359;DHT22;673;48.098;14.422;2023-02-01T08:47:54;4.70;99.90
1359;DHT22;673;48.098;14.422;2023-02-01T08:50:25;4.70;99.90
1359;DHT22;673;48.098;14.422;2023-02-01T08:52:52;4.70;99.90
1359;DHT22;673;48.098;14.422;2023-02-01T08:55:23;4.80;99.90
1359;DHT22;673;48.098;14.422;2023-02-01T08:57:49;4.80;99.90
1359;DHT22;673;48.098;14.422;2023-02-01T09:00:17;4.80;99.90
1359;DHT22;673;48.098;14.422;2023-02-01T09:02:46;4.80;99.90
1359;DHT22;673;48.098;14.422;2023-02-01T09:05:15;4.90;99.90
1359;DHT22;673;48.098;14.422;2023-02-01T09:07:52;4.80;99.90
1359;DHT22;673;48.098;14.422;2023-02-01T09:10:19;4.90;99.90
1359;DHT22;673;48.098;14.422;2023-02-01T09:12:50;4.90;99.90
1359;DHT22;673;48.098;14.422;2023-02-01T09:15:20;4.90;99.90
1359;DHT22;673;48.098;14.422;2023-02-01T09:17:49;5.00;99.90
1359;DHT22;673;48.098;14.422;2023-02-01T09:20:19;5.00;99.90
1359;DHT22;673;48.098;14.422;2023-02-01T09:22:55;4.90;99.90
1359;DHT22;673;48.098;14.422;2023-02-01T09:25:22;4.90;99.90
1359;DHT22;673;48.098;14.422;2023-02-01T09:27:50;4.90;99.90
1359;DHT22;673;48.098;14.422;2023-02-01T09:30:17;4.90;99.90
1359;DHT22;673;48.098;14.422;2023-02-01T09:32:49;4.90;99.90
1359;DHT22;673;48.098;14.422;2023-02-01T09:35:19;4.90;99.90
1359;DHT22;673;48.098;14.422;2023-02-01T09:37:46;4.90;99.90
1359;DHT22;673;48.098;14.422;2023-02-01T09:40:18;4.80;99.90
1359;DHT22;673;48.098;14.422;2023-02-01T09:43:07;4.70;99.90
1359;DHT22;673;48.098;14.422;2023-02-01T09:45:42;4.80;99.90
1359;DHT22;673;48.098;14.422;2023-02-01T09:48:13;4.80;99.90
1359;DHT22;673;48.098;14.422;2023-02-01T09:50:49;4.80;99.90
1359;DHT22;673;48.098;14.422;2023-02-01T09:53:21;4.90;99.90
1359;DHT22;673;48.098;14.422;2023-02-01T09:55:50;5.00;99.90
1359;DHT22;673;48.098;14.422;2023-02-01T09:58:32;5.00;99.90
1359;DHT22;673;48.098;14.422;2023-02-01T10:01:02;4.80;99.90
1359;DHT22;673;48.098;14.422;2023-02-01T10:03:35;4.70;99.90
1359;DHT22;673;48.098;14.422;2023-02-01T10:09:08;4.70;99.90
1359;DHT22;673;48.098;14.422;2023-02-01T10:11:47;4.80;99.90
1359;DHT22;673;48.098;14.422;2023-02-01T10:14:40;4.80;99.90
1359;DHT22;673;48.098;14.422;2023-02-01T10:17:16;4.80;99.90
1359;DHT22;673;48.098;14.422;2023-02-01T10:19:57;4.90;99.90
1359;DHT22;673;48.098;14.422;2023-02-01T10:22:40;5.00;99.90
1359;DHT22;673;48.098;14.422;2023-02-01T10:29:02;5.00;99.90
1359;DHT22;673;48.098;14.422;2023-02-01T10:31:33;5.10;99.90
1359;DHT22;673;48.098;14.422;2023-02-01T10:34:09;5.10;99.90
1359;DHT22;673;48.098;14.422;2023-02-01T10:36:41;5.00;99.90
1359;DHT22;673;48.098;14.422;2023-02-01T10:39:11;4.90;99.90
1359;DHT22;673;48.098;14.422;2023-02-01T10:41:39;4.80;99.90
1359;DHT22;673;48.098;14.422;2023-02-01T10:44:11;4.70;99.90
1359;DHT22;673;48.098;14.422;2023-02-01T10:46:41;4.60;99.90
1359;DHT22;673;48.098;14.422;2023-02-01T10:49:15;4.60;99.90
1359;DHT22;673;48.098;14.422;2023-02-01T10:51:47;4.70;99.90
1359;DHT22;673;48.098;14.422;2023-02-01T10:54:17;4.80;99.90
1359;DHT22;673;48.098;14.422;2023-02-01T10:56:46;4.90;99.90
1359;DHT22;673;48.098;14.422;2023-02-01T10:59:16;5.10;99.90
1359;DHT22;673;48.098;14.422;2023-02-01T11:01:47;5.30;99.90
1359;DHT22;673;48.098;14.422;2023-02-01T11:04:15;5.60;99.90
1359;DHT22;673;48.098;14.422;2023-02-01T11:06:45;5.60;99.90
1359;DHT22;673;48.098;14.422;2023-02-01T11:09:18;5.50;99.90
1359;DHT22;673;48.098;14.422;2023-02-01T11:11:58;5.40;99.90
1359;DHT22;673;48.098;14.422;2023-02-01T11:14:35;5.30;99.90
1359;DHT22;673;48.098;14.422;2023-02-01T11:17:21;5.30;99.90
1359;DHT22;673;48.098;14.422;2023-02-01T11:20:02;5.40;99.90
1359;DHT22;673;48.098;14.422;2023-02-01T11:22:30;5.40;99.90
1359;DHT22;673;48.098;14.422;2023-02-01T11:24:58;5.40;99.90
1359;DHT22;673;48.098;14.422;2023-02-01T11:27:26;5.50;99.90
1359;DHT22;673;48.098;14.422;2023-02-01T11:29:55;5.50;99.90
1359;DHT22;673;48.098;14.422;2023-02-01T11:32:26;5.60;99.90
1359;DHT22;673;48.098;14.422;2023-02-01T11:34:56;5.60;99.90
1359;DHT22;673;48.098;14.422;2023-02-01T11:37:26;5.50;99.90
1359;DHT22;673;48.098;14.422;2023-02-01T11:39:55;4.80;99.90
1359;DHT22;673;48.098;14.422;2023-02-01T11:42:23;4.20;99.90
1359;DHT22;673;48.098;14.422;2023-02-01T11:44:50;3.90;99.90
1359;DHT22;673;48.098;14.422;2023-02-01T11:47:28;3.60;99.90
1359;DHT22;673;48.098;14.422;2023-02-01T11:49:58;3.50;99.90
1359;DHT22;673;48.098;14.422;2023-02-01T11:52:49;3.50;99.90
1359;DHT22;673;48.098;14.422;2023-02-01T11:55:34;3.60;99.90
1359;DHT22;673;48.098;14.422;2023-02-01T11:58:13;3.60;99.90
1359;DHT22;673;48.098;14.422;2023-02-01T12:00:59;3.80;99.90
1359;DHT22;673;48.098;14.422;2023-02-01T12:06:27;4.00;99.90
1359;DHT22;673;48.098;14.422;2023-02-01T12:09:05;4.30;99.90
1359;DHT22;673;48.098;14.422;2023-02-01T12:11:46;4.60;99.90
1359;DHT22;673;48.098;14.422;2023-02-01T12:14:27;4.90;99.90
1359;DHT22;673;48.098;14.422;2023-02-01T12:17:14;5.10;99.90
1359;DHT22;673;48.098;14.422;2023-02-01T12:19:58;5.40;99.90
1359;DHT22;673;48.098;14.422;2023-02-01T12:22:35;5.80;99.90
1359;DHT22;673;48.098;14.422;2023-02-01T12:25:22;6.20;99.90
1359;DHT22;673;48.098;14.422;2023-02-01T12:28:31;6.60;99.90
1359;DHT22;673;48.098;14.422;2023-02-01T12:31:19;6.70;99.90
1359;DHT22;673;48.098;14.422;2023-02-01T12:33:59;6.60;99.90
1359;DHT22;673;48.098;14.422;2023-02-01T12:36:37;6.50;99.90
1359;DHT22;673;48.098;14.422;2023-02-01T12:39:16;6.40;99.90
1359;DHT22;673;48.098;14.422;2023-02-01T12:41:54;6.30;99.90
1359;DHT22;673;48.098;14.422;2023-02-01T12:44:35;6.40;99.90
1359;DHT22;673;48.098;14.422;2023-02-01T12:47:06;6.60;99.90
1359;DHT22;673;48.098;14.422;2023-02-01T12:49:44;6.60;99.90
1359;DHT22;673;48.098;14.422;2023-02-01T12:52:16;6.60;99.90
1359;DHT22;673;48.098;14.422;2023-02-01T12:54:48;6.40;99.90
1359;DHT22;673;48.098;14.422;2023-02-01T12:57:18;6.40;99.90
1359;DHT22;673;48.098;14.422;2023-02-01T12:59:52;6.30;99.90
1359;DHT22;673;48.098;14.422;2023-02-01T13:02:25;6.20;99.90
1359;DHT22;673;48.098;14.422;2023-02-01T13:04:59;6.10;99.90
1359;DHT22;673;48.098;14.422;2023-02-01T13:07:34;6.20;99.90
1359;DHT22;673;48.098;14.422;2023-02-01T13:10:12;6.20;99.90
1359;DHT22;673;48.098;14.422;2023-02-01T13:12:47;6.30;99.90
1359;DHT22;673;48.098;14.422;2023-02-01T13:15:19;6.30;99.90
1359;DHT22;673;48.098;14.422;2023-02-01T13:17:48;6.10;99.90
1359;DHT22;673;48.098;14.422;2023-02-01T13:20:21;6.00;99.90
1359;DHT22;673;48.098;14.422;2023-02-01T13:22:54;5.90;99.90
1359;DHT22;673;48.098;14.422;2023-02-01T13:25:29;5.90;99.90
1359;DHT22;673;48.098;14.422;2023-02-01T13:28:01;5.80;99.90
1359;DHT22;673;48.098;14.422;2023-02-01T13:30:38;5.80;99.90
1359;DHT22;673;48.098;14.422;2023-02-01T13:33:25;5.70;99.90
1359;DHT22;673;48.098;14.422;2023-02-01T13:39:22;5.60;99.90
1359;DHT22;673;48.098;14.422;2023-02-01T13:41:54;5.60;99.90
1359;DHT22;673;48.098;14.422;2023-02-01T13:44:27;5.50;99.90
1359;DHT22;673;48.098;14.422;2023-02-01T13:46:57;5.40;99.90
1359;DHT22;673;48.098;14.422;2023-02-01T13:49:27;5.40;99.90
1359;DHT22;673;48.098;14.422;2023-02-01T13:51:56;5.40;99.90
1359;DHT22;673;48.098;14.422;2023-02-01T13:54:29;5.40;99.90
1359;DHT22;673;48.098;14.422;2023-02-01T13:56:57;5.30;99.90
1359;DHT22;673;48.098;14.422;2023-02-01T14:00:05;5.20;99.90
1359;DHT22;673;48.098;14.422;2023-02-01T14:02:48;5.00;99.90
1359;DHT22;673;48.098;14.422;2023-02-01T14:08:40;4.60;99.90
1359;DHT22;673;48.098;14.422;2023-02-01T14:11:32;4.40;99.90
1359;DHT22;673;48.098;14.422;2023-02-01T14:17:36;4.10;99.90
1359;DHT22;673;48.098;14.422;2023-02-01T14:23:22;4.00;99.90
1359;DHT22;673;48.098;14.422;2023-02-01T14:26:09;3.90;99.90
1359;DHT22;673;48.098;14.422;2023-02-01T14:28:41;3.80;99.90
1359;DHT22;673;48.098;14.422;2023-02-01T14:31:43;3.70;99.90
1359;DHT22;673;48.098;14.422;2023-02-01T14:34:17;3.70;99.90
1359;DHT22;673;48.098;14.422;2023-02-01T14:36:51;3.60;99.90
1359;DHT22;673;48.098;14.422;2023-02-01T14:39:52;3.60;99.90
1359;DHT22;673;48.098;14.422;2023-02-01T14:42:25;3.60;99.90
1359;DHT22;673;48.098;14.422;2023-02-01T14:44:54;3.60;99.90
1359;DHT22;673;48.098;14.422;2023-02-01T14:47:34;3.60;99.90
1359;DHT22;673;48.098;14.422;2023-02-01T14:50:27;3.60;99.90
1359;DHT22;673;48.098;14.422;2023-02-01T14:53:17;3.60;99.90
1359;DHT22;673;48.098;14.422;2023-02-01T14:55:49;3.70;99.90
1359;DHT22;673;48.098;14.422;2023-02-01T14:58:23;3.70;99.90
1359;DHT22;673;48.098;14.422;2023-02-01T15:00:53;3.80;99.90
1359;DHT22;673;48.098;14.422;2023-02-01T15:03:49;3.80;99.90
1359;DHT22;673;48.098;14.422;2023-02-01T15:06:32;3.90;99.90
1359;DHT22;673;48.098;14.422;2023-02-01T15:09:02;4.00;99.90
1359;DHT22;673;48.098;14.422;2023-02-01T15:11:30;4.10;99.90
1359;DHT22;673;48.098;14.422;2023-02-01T15:13:58;4.10;99.90
1359;DHT22;673;48.098;14.422;2023-02-01T15:16:26;4.40;99.90
1359;DHT22;673;48.098;14.422;2023-02-01T15:19:10;4.40;99.90
1359;DHT22;673;48.098;14.422;2023-02-01T15:21:48;4.30;99.90
1359;DHT22;673;48.098;14.422;2023-02-01T15:24:20;4.40;99.90
1359;DHT22;673;48.098;14.422;2023-02-01T15:26:47;4.40;99.90
1359;DHT22;673;48.098;14.422;2023-02-01T15:29:15;4.40;99.90
1359;DHT22;673;48.098;14.422;2023-02-01T15:31:46;4.30;99.90
1359;DHT22;673;48.098;14.422;2023-02-01T15:34:14;4.40;99.90
1359;DHT22;673;48.098;14.422;2023-02-01T15:36:41;4.30;99.90
1359;DHT22;673;48.098;14.422;2023-02-01T15:39:18;4.30;99.90
1359;DHT22;673;48.098;14.422;2023-02-01T15:41:50;4.30;99.90
1359;DHT22;673;48.098;14.422;2023-02-01T15:44:21;4.30;99.90
1359;DHT22;673;48.098;14.422;2023-02-01T15:46:53;4.40;99.90
1359;DHT22;673;48.098;14.422;2023-02-01T15:49:25;4.40;99.90
1359;DHT22;673;48.098;14.422;2023-02-01T15:51:53;4.40;99.90
1359;DHT22;673;48.098;14.422;2023-02-01T15:54:24;4.50;99.90
1359;DHT22;673;48.098;14.422;2023-02-01T15:56:54;4.50;99.90
1359;DHT22;673;48.098;14.422;2023-02-01T15:59:25;4.60;99.90
1359;DHT22;673;48.098;14.422;2023-02-01T16:01:55;4.60;99.90
1359;DHT22;673;48.098;14.422;2023-02-01T16:04:23;4.60;99.90
1359;DHT22;673;48.098;14.422;2023-02-01T16:06:52;4.60;99.90
1359;DHT22;673;48.098;14.422;2023-02-01T16:09:21;4.60;99.90
1359;DHT22;673;48.098;14.422;2023-02-01T16:11:54;4.60;99.90
1359;DHT22;673;48.098;14.422;2023-02-01T16:14:23;4.60;99.90
1359;DHT22;673;48.098;14.422;2023-02-01T16:16:51;4.60;99.90
1359;DHT22;673;48.098;14.422;2023-02-01T16:19:18;4.70;99.90
1359;DHT22;673;48.098;14.422;2023-02-01T16:21:46;4.70;99.90
1359;DHT22;673;48.098;14.422;2023-02-01T16:24:12;4.70;99.90
1359;DHT22;673;48.098;14.422;2023-02-01T16:26:39;4.60;99.90
1359;DHT22;673;48.098;14.422;2023-02-01T16:29:06;4.60;99.90
1359;DHT22;673;48.098;14.422;2023-02-01T16:31:36;4.60;99.90
1359;DHT22;673;48.098;14.422;2023-02-01T16:34:05;4.60;99.90
1359;DHT22;673;48.098;14.422;2023-02-01T16:36:32;4.60;99.90
1359;DHT22;673;48.098;14.422;2023-02-01T16:38:59;4.60;99.90
1359;DHT22;673;48.098;14.422;2023-02-01T16:41:28;4.60;99.90
1359;DHT22;673;48.098;14.422;2023-02-01T16:43:55;4.60;99.90
1359;DHT22;673;48.098;14.422;2023-02-01T16:46:24;4.50;99.90
1359;DHT22;673;48.098;14.422;2023-02-01T16:48:55;4.60;99.90
1359;DHT22;673;48.098;14.422;2023-02-01T16:51:24;4.50;99.90
1359;DHT22;673;48.098;14.422;2023-02-01T16:53:52;4.40;99.90
1359;DHT22;673;48.098;14.422;2023-02-01T16:56:21;4.40;99.90
1359;DHT22;673;48.098;14.422;2023-02-01T16:58:48;4.40;99.90
1359;DHT22;673;48.098;14.422;2023-02-01T17:01:17;4.40;99.90
1359;DHT22;673;48.098;14.422;2023-02-01T17:03:45;4.30;99.90
1359;DHT22;673;48.098;14.422;2023-02-01T17:06:15;4.40;99.90
1359;DHT22;673;48.098;14.422;2023-02-01T17:08:45;4.40;99.90
1359;DHT22;673;48.098;14.422;2023-02-01T17:11:13;4.30;99.90
1359;DHT22;673;48.098;14.422;2023-02-01T17:13:41;4.30;99.90
1359;DHT22;673;48.098;14.422;2023-02-01T17:16:21;4.40;99.90